sensor_id;sensor_type;location;lat;lon;timestamp;P1;durP1;ratioP1;P2;durP2;ratioP2
8946;SDS011;4508;48.790;9.028;2023-02-01T00:00:00;4.85;;;4.45;;
8946;SDS011;4508;48.790;9.028;2023-02-01T00:02:28;4.80;;;4.40;;
8946;SDS011;4508;48.790;9.028;2023-02-01T00:04:57;5.47;;;4.97;;
8946;SDS011;4508;48.790;9.028;2023-02-01T00:07:24;5.03;;;4.63;;
8946;SDS011;4508;48.790;9.028;2023-02-01T00:09:52;5.20;;;4.80;;
8946;SDS011;4508;48.790;9.028;2023-02-01T00:12:21;5.22;;;4.82;;
8946;SDS011;4508;48.790;9.028;2023-02-01T00:14:49;4.95;;;4.55;;
8946;SDS011;4508;48.790;9.028;2023-02-01T00:17:17;5.28;;;4.55;;
8946;SDS011;4508;48.790;9.028;2023-02-01T00:19:45;5.10;;;4.60;;
8946;SDS011;4508;48.790;9.028;2023-02-01T00:22:13;4.90;;;4.50;;
8946;SDS011;4508;48.790;9.028;2023-02-01T00:24:41;5.18;;;4.68;;
8946;SDS011;4508;48.790;9.028;2023-02-01T00:27:09;5.35;;;4.85;;
8946;SDS011;4508;48.790;9.028;2023-02-01T00:29:44;4.82;;;4.43;;
8946;SDS011;4508;48.790;9.028;2023-02-01T00:32:11;5.30;;;4.80;;
8946;SDS011;4508;48.790;9.028;2023-02-01T00:34:38;5.57;;;5.07;;
8946;SDS011;4508;48.790;9.028;2023-02-01T00:37:05;4.30;;;3.90;;
8946;SDS011;4508;48.790;9.028;2023-02-01T00:39:33;3.92;;;3.63;;
8946;SDS011;4508;48.790;9.028;2023-02-01T00:42:02;4.15;;;3.85;;
8946;SDS011;4508;48.790;9.028;2023-02-01T00:44:28;4.18;;;3.85;;
8946;SDS011;4508;48.790;9.028;2023-02-01T00:46:59;4.30;;;4.00;;
8946;SDS011;4508;48.790;9.028;2023-02-01T00:49:26;3.85;;;3.55;;
8946;SDS011;4508;48.790;9.028;2023-02-01T00:51:53;4.00;;;3.70;;
8946;SDS011;4508;48.790;9.028;2023-02-01T00:54:21;4.05;;;3.75;;
8946;SDS011;4508;48.790;9.028;2023-02-01T00:56:48;4.30;;;4.00;;
8946;SDS011;4508;48.790;9.028;2023-02-01T00:59:15;3.90;;;3.60;;
8946;SDS011;4508;48.790;9.028;2023-02-01T01:01:44;3.70;;;3.40;;
8946;SDS011;4508;48.790;9.028;2023-02-01T01:04:12;3.88;;;3.40;;
8946;SDS011;4508;48.790;9.028;2023-02-01T01:06:38;3.60;;;3.30;;
8946;SDS011;4508;48.790;9.028;2023-02-01T01:09:06;3.25;;;3.05;;
8946;SDS011;4508;48.790;9.028;2023-02-01T01:11:35;3.70;;;3.40;;
8946;SDS011;4508;48.790;9.028;2023-02-01T01:14:04;3.97;;;3.67;;
8946;SDS011;4508;48.790;9.028;2023-02-01T01:16:31;3.83;;;3.53;;
8946;SDS011;4508;48.790;9.028;2023-02-01T01:18:59;3.90;;;3.60;;
8946;SDS011;4508;48.790;9.028;2023-02-01T01:21:28;3.60;;;3.33;;
8946;SDS011;4508;48.790;9.028;2023-02-01T01:23:55;3.33;;;3.13;;
8946;SDS011;4508;48.790;9.028;2023-02-01T01:26:22;3.47;;;3.17;;
8946;SDS011;4508;48.790;9.028;2023-02-01T01:28:50;3.00;;;2.80;;
8946;SDS011;4508;48.790;9.028;2023-02-01T01:31:18;3.05;;;2.85;;
8946;SDS011;4508;48.790;9.028;2023-02-01T01:33:47;3.10;;;2.90;;
8946;SDS011;4508;48.790;9.028;2023-02-01T01:36:15;2.90;;;2.70;;
8946;SDS011;4508;48.790;9.028;2023-02-01T01:38:43;3.08;;;2.88;;
8946;SDS011;4508;48.790;9.028;2023-02-01T01:41:12;3.92;;;3.05;;
8946;SDS011;4508;48.790;9.028;2023-02-01T01:43:47;3.13;;;2.92;;
8946;SDS011;4508;48.790;9.028;2023-02-01T01:46:15;2.97;;;2.78;;
8946;SDS011;4508;48.790;9.028;2023-02-01T01:48:43;2.72;;;2.53;;
8946;SDS011;4508;48.790;9.028;2023-02-01T01:51:11;2.80;;;2.60;;
8946;SDS011;4508;48.790;9.028;2023-02-01T01:53:43;3.05;;;2.85;;
8946;SDS011;4508;48.790;9.028;2023-02-01T01:56:12;2.97;;;2.78;;
8946;SDS011;4508;48.790;9.028;2023-02-01T01:58:39;3.10;;;2.80;;
8946;SDS011;4508;48.790;9.028;2023-02-01T02:01:08;3.33;;;3.10;;
8946;SDS011;4508;48.790;9.028;2023-02-01T02:03:37;3.40;;;3.10;;
8946;SDS011;4508;48.790;9.028;2023-02-01T02:06:08;3.35;;;3.15;;
8946;SDS011;4508;48.790;9.028;2023-02-01T02:08:39;3.25;;;3.05;;
8946;SDS011;4508;48.790;9.028;2023-02-01T02:11:08;3.20;;;3.00;;
8946;SDS011;4508;48.790;9.028;2023-02-01T02:13:38;3.23;;;3.03;;
8946;SDS011;4508;48.790;9.028;2023-02-01T02:16:12;3.20;;;3.00;;
8946;SDS011;4508;48.790;9.028;2023-02-01T02:18:45;3.20;;;3.00;;
8946;SDS011;4508;48.790;9.028;2023-02-01T02:21:17;3.43;;;3.23;;
8946;SDS011;4508;48.790;9.028;2023-02-01T02:23:56;3.55;;;3.35;;
8946;SDS011;4508;48.790;9.028;2023-02-01T02:26:35;3.33;;;3.10;;
8946;SDS011;4508;48.790;9.028;2023-02-01T02:29:29;3.28;;;3.08;;
8946;SDS011;4508;48.790;9.028;2023-02-01T02:34:49;3.80;;;3.50;;
8946;SDS011;4508;48.790;9.028;2023-02-01T02:37:23;3.40;;;3.20;;
8946;SDS011;4508;48.790;9.028;2023-02-01T02:39:58;3.40;;;3.20;;
8946;SDS011;4508;48.790;9.028;2023-02-01T02:42:32;3.30;;;3.10;;
8946;SDS011;4508;48.790;9.028;2023-02-01T02:45:23;3.53;;;3.22;;
8946;SDS011;4508;48.790;9.028;2023-02-01T02:48:19;3.95;;;3.65;;
8946;SDS011;4508;48.790;9.028;2023-02-01T02:50:50;3.80;;;3.50;;
8946;SDS011;4508;48.790;9.028;2023-02-01T02:53:38;3.80;;;3.50;;
8946;SDS011;4508;48.790;9.028;2023-02-01T02:56:26;3.75;;;3.45;;
8946;SDS011;4508;48.790;9.028;2023-02-01T02:59:13;3.65;;;3.35;;
8946;SDS011;4508;48.790;9.028;2023-02-01T03:01:59;3.70;;;3.40;;
8946;SDS011;4508;48.790;9.028;2023-02-01T03:04:44;3.65;;;3.35;;
8946;SDS011;4508;48.790;9.028;2023-02-01T03:07:14;3.58;;;3.35;;
8946;SDS011;4508;48.790;9.028;2023-02-01T03:09:42;3.95;;;3.65;;
8946;SDS011;4508;48.790;9.028;2023-02-01T03:12:12;3.72;;;3.45;;
8946;SDS011;4508;48.790;9.028;2023-02-01T03:15:03;3.33;;;3.13;;
8946;SDS011;4508;48.790;9.028;2023-02-01T03:17:33;3.80;;;3.50;;
8946;SDS011;4508;48.790;9.028;2023-02-01T03:20:05;3.63;;;3.40;;
8946;SDS011;4508;48.790;9.028;2023-02-01T03:22:37;3.78;;;3.47;;
8946;SDS011;4508;48.790;9.028;2023-02-01T03:25:07;3.92;;;3.63;;
8946;SDS011;4508;48.790;9.028;2023-02-01T03:27:39;3.50;;;3.30;;
8946;SDS011;4508;48.790;9.028;2023-02-01T03:30:10;3.58;;;3.38;;
8946;SDS011;4508;48.790;9.028;2023-02-01T03:32:43;3.83;;;3.53;;
8946;SDS011;4508;48.790;9.028;2023-02-01T03:35:25;3.50;;;3.30;;
8946;SDS011;4508;48.790;9.028;2023-02-01T03:37:56;3.72;;;3.42;;
8946;SDS011;4508;48.790;9.028;2023-02-01T03:40:27;3.50;;;3.30;;
8946;SDS011;4508;48.790;9.028;2023-02-01T03:42:56;3.30;;;3.10;;
8946;SDS011;4508;48.790;9.028;2023-02-01T03:45:27;3.88;;;3.58;;
8946;SDS011;4508;48.790;9.028;2023-02-01T03:47:58;3.63;;;3.33;;
8946;SDS011;4508;48.790;9.028;2023-02-01T03:50:27;3.45;;;3.25;;
8946;SDS011;4508;48.790;9.028;2023-02-01T03:52:58;3.40;;;3.20;;
8946;SDS011;4508;48.790;9.028;2023-02-01T03:55:28;3.30;;;3.10;;
8946;SDS011;4508;48.790;9.028;2023-02-01T03:57:58;3.38;;;3.17;;
8946;SDS011;4508;48.790;9.028;2023-02-01T04:00:30;3.37;;;3.17;;
8946;SDS011;4508;48.790;9.028;2023-02-01T04:02:57;3.53;;;3.22;;
8946;SDS011;4508;48.790;9.028;2023-02-01T04:05:23;4.00;;;3.70;;
8946;SDS011;4508;48.790;9.028;2023-02-01T04:07:50;3.75;;;3.47;;
8946;SDS011;4508;48.790;9.028;2023-02-01T04:10:18;3.05;;;2.85;;
8946;SDS011;4508;48.790;9.028;2023-02-01T04:12:45;3.30;;;3.10;;
8946;SDS011;4508;48.790;9.028;2023-02-01T04:15:12;3.10;;;2.90;;
8946;SDS011;4508;48.790;9.028;2023-02-01T04:17:38;3.50;;;3.20;;
8946;SDS011;4508;48.790;9.028;2023-02-01T04:20:05;4.40;;;4.10;;
8946;SDS011;4508;48.790;9.028;2023-02-01T04:22:34;3.88;;;3.58;;
8946;SDS011;4508;48.790;9.028;2023-02-01T04:25:01;4.18;;;3.88;;
8946;SDS011;4508;48.790;9.028;2023-02-01T04:27:31;4.32;;;4.00;;
8946;SDS011;4508;48.790;9.028;2023-02-01T04:30:00;4.50;;;4.20;;
8946;SDS011;4508;48.790;9.028;2023-02-01T04:32:26;3.95;;;3.65;;
8946;SDS011;4508;48.790;9.028;2023-02-01T04:34:54;3.70;;;3.40;;
8946;SDS011;4508;48.790;9.028;2023-02-01T04:37:21;3.67;;;3.38;;
8946;SDS011;4508;48.790;9.028;2023-02-01T04:39:48;3.70;;;3.40;;
8946;SDS011;4508;48.790;9.028;2023-02-01T04:42:15;3.65;;;3.35;;
8946;SDS011;4508;48.790;9.028;2023-02-01T04:44:44;3.83;;;3.53;;
8946;SDS011;4508;48.790;9.028;2023-02-01T04:47:12;3.33;;;3.10;;
8946;SDS011;4508;48.790;9.028;2023-02-01T04:49:40;3.60;;;3.30;;
8946;SDS011;4508;48.790;9.028;2023-02-01T04:52:08;3.92;;;3.63;;
8946;SDS011;4508;48.790;9.028;2023-02-01T04:54:35;3.80;;;3.50;;
8946;SDS011;4508;48.790;9.028;2023-02-01T04:57:03;3.80;;;3.50;;
8946;SDS011;4508;48.790;9.028;2023-02-01T04:59:30;3.70;;;3.40;;
8946;SDS011;4508;48.790;9.028;2023-02-01T05:01:59;3.38;;;3.10;;
8946;SDS011;4508;48.790;9.028;2023-02-01T05:04:27;3.40;;;3.10;;
8946;SDS011;4508;48.790;9.028;2023-02-01T05:06:55;3.10;;;2.90;;
8946;SDS011;4508;48.790;9.028;2023-02-01T05:09:22;3.20;;;3.00;;
8946;SDS011;4508;48.790;9.028;2023-02-01T05:11:49;3.27;;;3.07;;
8946;SDS011;4508;48.790;9.028;2023-02-01T05:14:33;2.80;;;2.60;;
8946;SDS011;4508;48.790;9.028;2023-02-01T05:17:02;3.25;;;2.95;;
8946;SDS011;4508;48.790;9.028;2023-02-01T05:19:30;3.03;;;2.83;;
8946;SDS011;4508;48.790;9.028;2023-02-01T05:21:58;3.17;;;2.97;;
8946;SDS011;4508;48.790;9.028;2023-02-01T05:24:26;4.22;;;2.83;;
8946;SDS011;4508;48.790;9.028;2023-02-01T05:26:54;3.08;;;2.88;;
8946;SDS011;4508;48.790;9.028;2023-02-01T05:29:22;3.03;;;2.83;;
8946;SDS011;4508;48.790;9.028;2023-02-01T05:31:50;2.85;;;2.58;;
8946;SDS011;4508;48.790;9.028;2023-02-01T05:34:20;2.83;;;2.57;;
8946;SDS011;4508;48.790;9.028;2023-02-01T05:36:48;2.45;;;2.25;;
8946;SDS011;4508;48.790;9.028;2023-02-01T05:39:16;2.60;;;2.40;;
8946;SDS011;4508;48.790;9.028;2023-02-01T05:41:43;2.78;;;2.58;;
8946;SDS011;4508;48.790;9.028;2023-02-01T05:44:12;2.33;;;2.13;;
8946;SDS011;4508;48.790;9.028;2023-02-01T05:46:39;2.40;;;2.20;;
8946;SDS011;4508;48.790;9.028;2023-02-01T05:49:07;2.90;;;2.25;;
8946;SDS011;4508;48.790;9.028;2023-02-01T05:51:36;2.88;;;2.60;;
8946;SDS011;4508;48.790;9.028;2023-02-01T05:54:03;3.13;;;2.70;;
8946;SDS011;4508;48.790;9.028;2023-02-01T05:56:31;3.13;;;2.80;;
8946;SDS011;4508;48.790;9.028;2023-02-01T05:58:59;2.60;;;2.40;;
8946;SDS011;4508;48.790;9.028;2023-02-01T06:01:26;2.88;;;2.58;;
8946;SDS011;4508;48.790;9.028;2023-02-01T06:03:54;2.90;;;2.60;;
8946;SDS011;4508;48.790;9.028;2023-02-01T06:06:21;3.88;;;2.60;;
8946;SDS011;4508;48.790;9.028;2023-02-01T06:08:50;2.90;;;2.70;;
8946;SDS011;4508;48.790;9.028;2023-02-01T06:11:18;3.10;;;2.40;;
8946;SDS011;4508;48.790;9.028;2023-02-01T06:13:46;2.78;;;2.58;;
8946;SDS011;4508;48.790;9.028;2023-02-01T06:16:14;3.05;;;2.75;;
8946;SDS011;4508;48.790;9.028;2023-02-01T06:18:41;2.67;;;2.47;;
8946;SDS011;4508;48.790;9.028;2023-02-01T06:21:09;3.00;;;2.70;;
8946;SDS011;4508;48.790;9.028;2023-02-01T06:23:38;3.38;;;2.80;;
8946;SDS011;4508;48.790;9.028;2023-02-01T06:26:08;3.05;;;2.75;;
8946;SDS011;4508;48.790;9.028;2023-02-01T06:28:36;3.83;;;2.80;;
8946;SDS011;4508;48.790;9.028;2023-02-01T06:31:05;3.10;;;2.80;;
8946;SDS011;4508;48.790;9.028;2023-02-01T06:33:33;4.10;;;3.70;;
8946;SDS011;4508;48.790;9.028;2023-02-01T06:36:02;4.80;;;3.87;;
8946;SDS011;4508;48.790;9.028;2023-02-01T06:38:31;3.83;;;3.50;;
8946;SDS011;4508;48.790;9.028;2023-02-01T06:41:00;4.63;;;3.53;;
8946;SDS011;4508;48.790;9.028;2023-02-01T06:43:30;4.40;;;3.65;;
8946;SDS011;4508;48.790;9.028;2023-02-01T06:45:59;3.72;;;3.42;;
8946;SDS011;4508;48.790;9.028;2023-02-01T06:48:27;4.63;;;3.95;;
8946;SDS011;4508;48.790;9.028;2023-02-01T06:50:55;4.63;;;4.00;;
8946;SDS011;4508;48.790;9.028;2023-02-01T06:53:23;4.47;;;3.95;;
8946;SDS011;4508;48.790;9.028;2023-02-01T06:55:51;4.97;;;3.97;;
8946;SDS011;4508;48.790;9.028;2023-02-01T06:58:20;5.23;;;3.93;;
8946;SDS011;4508;48.790;9.028;2023-02-01T07:00:49;5.15;;;3.83;;
8946;SDS011;4508;48.790;9.028;2023-02-01T07:03:18;5.03;;;3.78;;
8946;SDS011;4508;48.790;9.028;2023-02-01T07:05:47;5.65;;;4.50;;
8946;SDS011;4508;48.790;9.028;2023-02-01T07:08:15;8.65;;;4.63;;
8946;SDS011;4508;48.790;9.028;2023-02-01T07:10:43;5.67;;;4.20;;
8946;SDS011;4508;48.790;9.028;2023-02-01T07:13:10;5.22;;;4.28;;
8946;SDS011;4508;48.790;9.028;2023-02-01T07:15:38;5.72;;;3.97;;
8946;SDS011;4508;48.790;9.028;2023-02-01T07:18:07;5.10;;;3.90;;
8946;SDS011;4508;48.790;9.028;2023-02-01T07:20:35;5.03;;;3.58;;
8946;SDS011;4508;48.790;9.028;2023-02-01T07:23:03;5.03;;;3.67;;
8946;SDS011;4508;48.790;9.028;2023-02-01T07:25:31;5.90;;;3.72;;
8946;SDS011;4508;48.790;9.028;2023-02-01T07:28:00;6.28;;;3.80;;
8946;SDS011;4508;48.790;9.028;2023-02-01T07:30:28;5.55;;;4.00;;
8946;SDS011;4508;48.790;9.028;2023-02-01T07:32:54;6.23;;;3.90;;
8946;SDS011;4508;48.790;9.028;2023-02-01T07:35:25;5.95;;;4.10;;
8946;SDS011;4508;48.790;9.028;2023-02-01T07:37:52;5.22;;;3.70;;
8946;SDS011;4508;48.790;9.028;2023-02-01T07:40:19;5.22;;;3.58;;
8946;SDS011;4508;48.790;9.028;2023-02-01T07:42:50;4.38;;;3.40;;
8946;SDS011;4508;48.790;9.028;2023-02-01T07:45:17;4.97;;;3.55;;
8946;SDS011;4508;48.790;9.028;2023-02-01T07:47:45;5.63;;;3.65;;
8946;SDS011;4508;48.790;9.028;2023-02-01T07:50:11;5.93;;;3.63;;
8946;SDS011;4508;48.790;9.028;2023-02-01T07:52:40;6.97;;;3.95;;
8946;SDS011;4508;48.790;9.028;2023-02-01T07:55:08;5.90;;;3.57;;
8946;SDS011;4508;48.790;9.028;2023-02-01T07:57:37;7.68;;;4.10;;
8946;SDS011;4508;48.790;9.028;2023-02-01T08:00:05;5.90;;;3.72;;
8946;SDS011;4508;48.790;9.028;2023-02-01T08:02:51;7.22;;;3.95;;
8946;SDS011;4508;48.790;9.028;2023-02-01T08:05:19;5.50;;;3.80;;
8946;SDS011;4508;48.790;9.028;2023-02-01T08:07:49;7.05;;;3.92;;
8946;SDS011;4508;48.790;9.028;2023-02-01T08:10:17;7.40;;;4.00;;
8946;SDS011;4508;48.790;9.028;2023-02-01T08:12:45;6.72;;;3.95;;
8946;SDS011;4508;48.790;9.028;2023-02-01T08:15:13;8.07;;;4.10;;
8946;SDS011;4508;48.790;9.028;2023-02-01T08:17:45;6.82;;;4.18;;
8946;SDS011;4508;48.790;9.028;2023-02-01T08:20:14;7.82;;;4.03;;
8946;SDS011;4508;48.790;9.028;2023-02-01T08:22:42;9.85;;;4.40;;
8946;SDS011;4508;48.790;9.028;2023-02-01T08:25:11;6.45;;;4.00;;
8946;SDS011;4508;48.790;9.028;2023-02-01T08:27:39;8.93;;;4.20;;
8946;SDS011;4508;48.790;9.028;2023-02-01T08:30:06;7.72;;;3.80;;
8946;SDS011;4508;48.790;9.028;2023-02-01T08:32:34;9.35;;;4.10;;
8946;SDS011;4508;48.790;9.028;2023-02-01T08:35:01;6.37;;;3.50;;
8946;SDS011;4508;48.790;9.028;2023-02-01T08:37:29;7.17;;;3.70;;
8946;SDS011;4508;48.790;9.028;2023-02-01T08:39:58;8.20;;;3.65;;
8946;SDS011;4508;48.790;9.028;2023-02-01T08:42:27;7.47;;;3.47;;
8946;SDS011;4508;48.790;9.028;2023-02-01T08:45:13;6.73;;;3.40;;
8946;SDS011;4508;48.790;9.028;2023-02-01T08:47:41;6.93;;;3.42;;
8946;SDS011;4508;48.790;9.028;2023-02-01T08:50:09;8.48;;;3.63;;
8946;SDS011;4508;48.790;9.028;2023-02-01T08:52:37;8.23;;;4.07;;
8946;SDS011;4508;48.790;9.028;2023-02-01T08:55:05;7.60;;;3.58;;
8946;SDS011;4508;48.790;9.028;2023-02-01T08:57:34;6.28;;;3.47;;
8946;SDS011;4508;48.790;9.028;2023-02-01T09:00:02;6.88;;;3.53;;
8946;SDS011;4508;48.790;9.028;2023-02-01T09:02:30;7.30;;;3.50;;
8946;SDS011;4508;48.790;9.028;2023-02-01T09:04:58;7.10;;;3.60;;
8946;SDS011;4508;48.790;9.028;2023-02-01T09:07:26;7.20;;;3.60;;
8946;SDS011;4508;48.790;9.028;2023-02-01T09:09:54;8.52;;;4.07;;
8946;SDS011;4508;48.790;9.028;2023-02-01T09:12:25;6.72;;;3.85;;
8946;SDS011;4508;48.790;9.028;2023-02-01T09:14:55;8.68;;;3.63;;
8946;SDS011;4508;48.790;9.028;2023-02-01T09:17:24;7.95;;;3.80;;
8946;SDS011;4508;48.790;9.028;2023-02-01T09:19:51;9.32;;;4.25;;
8946;SDS011;4508;48.790;9.028;2023-02-01T09:22:18;7.47;;;3.92;;
8946;SDS011;4508;48.790;9.028;2023-02-01T09:24:44;7.35;;;3.85;;
8946;SDS011;4508;48.790;9.028;2023-02-01T09:27:11;9.45;;;3.92;;
8946;SDS011;4508;48.790;9.028;2023-02-01T09:29:38;7.28;;;3.83;;
8946;SDS011;4508;48.790;9.028;2023-02-01T09:32:06;8.55;;;4.18;;
8946;SDS011;4508;48.790;9.028;2023-02-01T09:34:33;8.38;;;4.07;;
8946;SDS011;4508;48.790;9.028;2023-02-01T09:37:00;9.60;;;3.92;;
8946;SDS011;4508;48.790;9.028;2023-02-01T09:39:27;9.03;;;4.40;;
8946;SDS011;4508;48.790;9.028;2023-02-01T09:41:57;9.80;;;4.22;;
8946;SDS011;4508;48.790;9.028;2023-02-01T09:44:34;8.25;;;3.65;;
8946;SDS011;4508;48.790;9.028;2023-02-01T09:47:12;8.23;;;3.57;;
8946;SDS011;4508;48.790;9.028;2023-02-01T09:49:43;8.45;;;3.92;;
8946;SDS011;4508;48.790;9.028;2023-02-01T09:52:16;8.83;;;3.83;;
8946;SDS011;4508;48.790;9.028;2023-02-01T09:54:47;7.17;;;3.53;;
8946;SDS011;4508;48.790;9.028;2023-02-01T09:57:22;8.30;;;3.90;;
8946;SDS011;4508;48.790;9.028;2023-02-01T09:59:53;10.00;;;3.88;;
8946;SDS011;4508;48.790;9.028;2023-02-01T10:02:24;7.53;;;3.40;;
8946;SDS011;4508;48.790;9.028;2023-02-01T10:04:53;8.47;;;3.33;;
8946;SDS011;4508;48.790;9.028;2023-02-01T10:07:24;10.35;;;4.22;;
8946;SDS011;4508;48.790;9.028;2023-02-01T10:09:58;9.48;;;3.83;;
8946;SDS011;4508;48.790;9.028;2023-02-01T10:12:45;8.98;;;3.90;;
8946;SDS011;4508;48.790;9.028;2023-02-01T10:15:19;7.93;;;3.45;;
8946;SDS011;4508;48.790;9.028;2023-02-01T10:17:53;11.15;;;4.25;;
8946;SDS011;4508;48.790;9.028;2023-02-01T10:20:26;9.80;;;4.20;;
8946;SDS011;4508;48.790;9.028;2023-02-01T10:23:00;9.80;;;3.92;;
8946;SDS011;4508;48.790;9.028;2023-02-01T10:25:30;7.93;;;3.60;;
8946;SDS011;4508;48.790;9.028;2023-02-01T10:27:59;8.15;;;3.50;;
8946;SDS011;4508;48.790;9.028;2023-02-01T10:30:29;9.25;;;4.40;;
8946;SDS011;4508;48.790;9.028;2023-02-01T10:33:01;8.40;;;4.40;;
8946;SDS011;4508;48.790;9.028;2023-02-01T10:35:33;9.88;;;3.63;;
8946;SDS011;4508;48.790;9.028;2023-02-01T10:38:03;10.15;;;4.10;;
8946;SDS011;4508;48.790;9.028;2023-02-01T10:40:38;7.97;;;3.50;;
8946;SDS011;4508;48.790;9.028;2023-02-01T10:43:07;9.38;;;3.65;;
8946;SDS011;4508;48.790;9.028;2023-02-01T10:45:36;9.05;;;3.97;;
8946;SDS011;4508;48.790;9.028;2023-02-01T10:48:08;9.15;;;3.63;;
8946;SDS011;4508;48.790;9.028;2023-02-01T10:50:37;9.35;;;4.05;;
8946;SDS011;4508;48.790;9.028;2023-02-01T10:53:06;7.10;;;3.58;;
8946;SDS011;4508;48.790;9.028;2023-02-01T10:55:39;8.77;;;3.88;;
8946;SDS011;4508;48.790;9.028;2023-02-01T10:58:10;8.90;;;4.17;;
8946;SDS011;4508;48.790;9.028;2023-02-01T11:00:43;10.05;;;3.58;;
8946;SDS011;4508;48.790;9.028;2023-02-01T11:06:08;9.07;;;3.73;;
8946;SDS011;4508;48.790;9.028;2023-02-01T11:08:42;9.65;;;4.22;;
8946;SDS011;4508;48.790;9.028;2023-02-01T11:11:10;8.65;;;3.85;;
8946;SDS011;4508;48.790;9.028;2023-02-01T11:13:39;8.18;;;3.70;;
8946;SDS011;4508;48.790;9.028;2023-02-01T11:16:10;9.05;;;3.60;;
8946;SDS011;4508;48.790;9.028;2023-02-01T11:18:39;9.05;;;4.00;;
8946;SDS011;4508;48.790;9.028;2023-02-01T11:21:09;7.07;;;3.28;;
8946;SDS011;4508;48.790;9.028;2023-02-01T11:23:40;10.70;;;3.92;;
8946;SDS011;4508;48.790;9.028;2023-02-01T11:26:10;8.20;;;3.50;;
8946;SDS011;4508;48.790;9.028;2023-02-01T11:28:40;9.07;;;3.80;;
8946;SDS011;4508;48.790;9.028;2023-02-01T11:31:12;10.10;;;4.00;;
8946;SDS011;4508;48.790;9.028;2023-02-01T11:33:43;9.45;;;3.63;;
8946;SDS011;4508;48.790;9.028;2023-02-01T11:36:14;8.68;;;3.90;;
8946;SDS011;4508;48.790;9.028;2023-02-01T11:38:45;8.80;;;3.45;;
8946;SDS011;4508;48.790;9.028;2023-02-01T11:41:14;8.00;;;3.28;;
8946;SDS011;4508;48.790;9.028;2023-02-01T11:43:52;9.02;;;3.15;;
8946;SDS011;4508;48.790;9.028;2023-02-01T11:46:22;7.13;;;3.57;;
8946;SDS011;4508;48.790;9.028;2023-02-01T11:48:51;9.15;;;3.20;;
8946;SDS011;4508;48.790;9.028;2023-02-01T11:51:24;9.70;;;3.55;;
8946;SDS011;4508;48.790;9.028;2023-02-01T11:53:58;8.15;;;3.15;;
8946;SDS011;4508;48.790;9.028;2023-02-01T11:56:30;9.15;;;3.70;;
8946;SDS011;4508;48.790;9.028;2023-02-01T11:59:06;8.43;;;3.50;;
8946;SDS011;4508;48.790;9.028;2023-02-01T12:01:45;8.30;;;3.55;;
8946;SDS011;4508;48.790;9.028;2023-02-01T12:06:59;8.52;;;3.20;;
8946;SDS011;4508;48.790;9.028;2023-02-01T12:09:35;9.20;;;3.35;;
8946;SDS011;4508;48.790;9.028;2023-02-01T12:12:07;10.02;;;3.75;;
8946;SDS011;4508;48.790;9.028;2023-02-01T12:14:42;8.40;;;3.58;;
8946;SDS011;4508;48.790;9.028;2023-02-01T12:17:18;7.53;;;3.40;;
8946;SDS011;4508;48.790;9.028;2023-02-01T12:19:55;8.65;;;3.50;;
8946;SDS011;4508;48.790;9.028;2023-02-01T12:22:31;9.07;;;3.90;;
8946;SDS011;4508;48.790;9.028;2023-02-01T12:30:56;7.55;;;3.20;;
8946;SDS011;4508;48.790;9.028;2023-02-01T12:33:37;7.68;;;3.10;;
8946;SDS011;4508;48.790;9.028;2023-02-01T12:36:16;9.02;;;3.67;;
8946;SDS011;4508;48.790;9.028;2023-02-01T12:38:54;8.57;;;3.78;;
8946;SDS011;4508;48.790;9.028;2023-02-01T12:41:31;9.70;;;3.73;;
8946;SDS011;4508;48.790;9.028;2023-02-01T12:44:08;9.77;;;3.78;;
8946;SDS011;4508;48.790;9.028;2023-02-01T12:46:40;8.40;;;3.88;;
8946;SDS011;4508;48.790;9.028;2023-02-01T12:49:12;8.57;;;3.45;;
8946;SDS011;4508;48.790;9.028;2023-02-01T12:51:43;7.25;;;3.47;;
8946;SDS011;4508;48.790;9.028;2023-02-01T12:54:13;8.43;;;3.35;;
8946;SDS011;4508;48.790;9.028;2023-02-01T12:56:43;8.68;;;3.90;;
8946;SDS011;4508;48.790;9.028;2023-02-01T12:59:14;8.20;;;4.18;;
8946;SDS011;4508;48.790;9.028;2023-02-01T13:01:44;8.10;;;4.30;;
8946;SDS011;4508;48.790;9.028;2023-02-01T13:04:17;8.97;;;3.57;;
8946;SDS011;4508;48.790;9.028;2023-02-01T13:06:46;8.60;;;3.70;;
8946;SDS011;4508;48.790;9.028;2023-02-01T13:09:20;8.00;;;3.50;;
8946;SDS011;4508;48.790;9.028;2023-02-01T13:11:49;9.80;;;3.83;;
8946;SDS011;4508;48.790;9.028;2023-02-01T13:14:20;9.48;;;3.80;;
8946;SDS011;4508;48.790;9.028;2023-02-01T13:16:51;9.00;;;4.20;;
8946;SDS011;4508;48.790;9.028;2023-02-01T13:19:20;10.63;;;4.90;;
8946;SDS011;4508;48.790;9.028;2023-02-01T13:21:50;8.30;;;4.18;;
8946;SDS011;4508;48.790;9.028;2023-02-01T13:24:24;9.63;;;3.75;;
8946;SDS011;4508;48.790;9.028;2023-02-01T13:26:55;8.30;;;3.47;;
8946;SDS011;4508;48.790;9.028;2023-02-01T13:29:22;7.85;;;3.33;;
8946;SDS011;4508;48.790;9.028;2023-02-01T13:31:54;9.13;;;3.72;;
8946;SDS011;4508;48.790;9.028;2023-02-01T13:34:33;8.18;;;3.42;;
8946;SDS011;4508;48.790;9.028;2023-02-01T13:37:28;8.85;;;3.60;;
8946;SDS011;4508;48.790;9.028;2023-02-01T13:40:10;7.87;;;3.63;;
8946;SDS011;4508;48.790;9.028;2023-02-01T13:42:49;7.73;;;4.03;;
8946;SDS011;4508;48.790;9.028;2023-02-01T13:45:18;10.40;;;4.15;;
8946;SDS011;4508;48.790;9.028;2023-02-01T13:47:48;9.77;;;4.05;;
8946;SDS011;4508;48.790;9.028;2023-02-01T13:50:20;7.73;;;3.70;;
8946;SDS011;4508;48.790;9.028;2023-02-01T13:52:53;8.90;;;3.50;;
8946;SDS011;4508;48.790;9.028;2023-02-01T13:55:27;8.30;;;3.78;;
8946;SDS011;4508;48.790;9.028;2023-02-01T13:58:00;9.48;;;4.20;;
8946;SDS011;4508;48.790;9.028;2023-02-01T14:00:31;8.50;;;3.75;;
8946;SDS011;4508;48.790;9.028;2023-02-01T14:03:06;9.00;;;4.20;;
8946;SDS011;4508;48.790;9.028;2023-02-01T14:08:40;8.15;;;3.40;;
8946;SDS011;4508;48.790;9.028;2023-02-01T14:23:21;9.10;;;3.55;;
8946;SDS011;4508;48.790;9.028;2023-02-01T14:26:08;8.55;;;3.63;;
8946;SDS011;4508;48.790;9.028;2023-02-01T14:28:46;9.27;;;4.00;;
8946;SDS011;4508;48.790;9.028;2023-02-01T14:31:16;7.63;;;3.40;;
8946;SDS011;4508;48.790;9.028;2023-02-01T14:33:44;8.30;;;3.70;;
8946;SDS011;4508;48.790;9.028;2023-02-01T14:36:13;7.57;;;3.60;;
8946;SDS011;4508;48.790;9.028;2023-02-01T14:38:47;8.10;;;4.03;;
8946;SDS011;4508;48.790;9.028;2023-02-01T14:41:26;8.52;;;3.70;;
8946;SDS011;4508;48.790;9.028;2023-02-01T14:44:22;7.90;;;3.53;;
8946;SDS011;4508;48.790;9.028;2023-02-01T14:49:47;6.85;;;3.53;;
8946;SDS011;4508;48.790;9.028;2023-02-01T14:52:16;8.15;;;3.50;;
8946;SDS011;4508;48.790;9.028;2023-02-01T14:54:44;9.47;;;3.90;;
8946;SDS011;4508;48.790;9.028;2023-02-01T14:57:14;8.35;;;3.53;;
8946;SDS011;4508;48.790;9.028;2023-02-01T14:59:45;10.57;;;3.80;;
8946;SDS011;4508;48.790;9.028;2023-02-01T15:02:17;9.50;;;3.90;;
8946;SDS011;4508;48.790;9.028;2023-02-01T15:04:46;8.00;;;3.45;;
8946;SDS011;4508;48.790;9.028;2023-02-01T15:07:14;7.18;;;3.45;;
8946;SDS011;4508;48.790;9.028;2023-02-01T15:09:43;7.83;;;3.47;;
8946;SDS011;4508;48.790;9.028;2023-02-01T15:12:15;7.97;;;3.80;;
8946;SDS011;4508;48.790;9.028;2023-02-01T15:14:47;10.45;;;4.28;;
8946;SDS011;4508;48.790;9.028;2023-02-01T15:17:17;8.98;;;3.88;;
8946;SDS011;4508;48.790;9.028;2023-02-01T15:19:52;8.20;;;3.78;;
8946;SDS011;4508;48.790;9.028;2023-02-01T15:22:20;9.73;;;4.05;;
8946;SDS011;4508;48.790;9.028;2023-02-01T15:24:51;10.13;;;4.00;;
8946;SDS011;4508;48.790;9.028;2023-02-01T15:27:20;7.88;;;3.60;;
8946;SDS011;4508;48.790;9.028;2023-02-01T15:29:49;9.38;;;3.75;;
8946;SDS011;4508;48.790;9.028;2023-02-01T15:32:28;8.40;;;3.78;;
8946;SDS011;4508;48.790;9.028;2023-02-01T15:34:56;9.33;;;3.60;;
8946;SDS011;4508;48.790;9.028;2023-02-01T15:37:25;7.13;;;3.70;;
8946;SDS011;4508;48.790;9.028;2023-02-01T15:40:03;8.35;;;3.83;;
8946;SDS011;4508;48.790;9.028;2023-02-01T15:42:33;11.40;;;5.03;;
8946;SDS011;4508;48.790;9.028;2023-02-01T15:45:02;8.85;;;4.80;;
8946;SDS011;4508;48.790;9.028;2023-02-01T15:47:30;8.03;;;4.20;;
8946;SDS011;4508;48.790;9.028;2023-02-01T15:50:01;7.72;;;3.60;;
8946;SDS011;4508;48.790;9.028;2023-02-01T15:52:31;7.28;;;3.42;;
8946;SDS011;4508;48.790;9.028;2023-02-01T15:55:02;9.07;;;3.50;;
8946;SDS011;4508;48.790;9.028;2023-02-01T15:57:29;7.17;;;3.37;;
8946;SDS011;4508;48.790;9.028;2023-02-01T15:59:59;9.57;;;3.63;;
8946;SDS011;4508;48.790;9.028;2023-02-01T16:02:33;6.38;;;3.35;;
8946;SDS011;4508;48.790;9.028;2023-02-01T16:05:03;8.10;;;3.40;;
8946;SDS011;4508;48.790;9.028;2023-02-01T16:07:31;9.20;;;3.60;;